Time;durP1;ratioP1;P1;durP2;ratioP2;P2;SDS_P1;SDS_P2;PMS_P1;PMS_P2;Temp;Humidity;BMP_temperature;BMP_pressure;BME280_temperature;BME280_humidity;BME280_pressure;Samples;Min_cycle;Max_cycle;Signal;HPM_P1;HPM_P2
2022/10/19 00:00:38;;;;;;;11.60;1.35;;;11.10;73.40;;;;;;4184043;28;20119;-82
2022/10/19 00:02:57;;;;;;;11.00;1.67;;;11.10;73.30;;;;;;4191947;28;20135;-84
2022/10/19 00:05:16;;;;;;;16.50;1.90;;;11.20;73.20;;;;;;4181439;28;20507;-84
2022/10/19 00:07:36;;;;;;;21.05;1.92;;;11.10;73.20;;;;;;4186839;28;20400;-84
2022/10/19 00:09:55;;;;;;;9.32;1.10;;;11.00;73.10;;;;;;4191083;28;20074;-83
2022/10/19 00:12:14;;;;;;;16.48;1.90;;;11.00;73.20;;;;;;4193227;28;20043;-83
2022/10/19 00:14:33;;;;;;;8.93;1.13;;;11.00;73.10;;;;;;4193953;28;20055;-83
2022/10/19 00:16:54;;;;;;;11.00;1.27;;;11.00;73.10;;;;;;4192969;28;20102;-83
2022/10/19 00:19:17;;;;;;;10.75;1.48;;;10.90;73.00;;;;;;4190540;28;20138;-83
2022/10/19 00:21:38;;;;;;;7.75;1.35;;;10.90;73.00;;;;;;4190397;28;20043;-84
2022/10/19 00:23:57;;;;;;;16.55;1.70;;;10.90;72.90;;;;;;4206970;28;20729;-83
2022/10/19 00:26:16;;;;;;;11.77;1.85;;;10.90;72.80;;;;;;4190283;28;20071;-84
2022/10/19 00:28:36;;;;;;;10.98;1.20;;;11.00;72.80;;;;;;4201669;28;20038;-83
2022/10/19 00:30:55;;;;;;;14.25;1.45;;;10.80;72.70;;;;;;4192527;28;20537;-84
2022/10/19 00:33:20;;;;;;;10.00;1.15;;;10.80;72.60;;;;;;4191393;28;20039;-83
2022/10/19 00:35:40;;;;;;;9.98;1.73;;;10.90;72.70;;;;;;4194033;28;20070;-83
2022/10/19 00:37:59;;;;;;;18.55;1.42;;;10.70;72.50;;;;;;4196896;28;20035;-83
2022/10/19 00:40:18;;;;;;;15.35;1.70;;;10.80;72.50;;;;;;4189465;28;20067;-84
2022/10/19 00:42:37;;;;;;;7.80;1.60;;;10.70;72.30;;;;;;4183599;28;20086;-83
2022/10/19 00:45:00;;;;;;;12.60;2.00;;;10.70;72.30;;;;;;4187883;28;20559;-83
2022/10/19 00:47:22;;;;;;;13.82;1.92;;;10.60;72.30;;;;;;4188698;28;20039;-84
2022/10/19 00:49:44;;;;;;;13.38;2.03;;;10.60;72.30;;;;;;4191931;28;20079;-83
2022/10/19 00:52:10;;;;;;;9.43;1.73;;;10.50;72.30;;;;;;4181336;28;20394;-83
2022/10/19 00:54:32;;;;;;;10.60;1.60;;;10.60;72.40;;;;;;4197752;28;20035;-83
2022/10/19 00:56:54;;;;;;;11.60;1.40;;;10.60;72.40;;;;;;4188920;28;20087;-83
2022/10/19 00:59:16;;;;;;;10.98;1.67;;;10.50;72.40;;;;;;4190013;28;20079;-84
2022/10/19 01:01:35;;;;;;;10.75;1.85;;;10.50;72.40;;;;;;4193149;28;20163;-83
2022/10/19 01:03:54;;;;;;;9.50;1.17;;;10.40;72.40;;;;;;4190069;28;20074;-83
2022/10/19 01:06:16;;;;;;;15.60;1.85;;;10.40;72.40;;;;;;4191939;28;20027;-84
2022/10/19 01:08:35;;;;;;;12.80;1.52;;;10.50;72.40;;;;;;4194993;28;20097;-83
2022/10/19 01:11:03;;;;;;;8.93;1.60;;;10.30;72.30;;;;;;4187544;28;20117;-83
2022/10/19 01:13:45;;;;;;;11.10;1.67;;;10.40;72.50;;;;;;4186233;28;20143;-84
2022/10/19 01:16:19;;;;;;;12.95;1.23;;;10.30;72.30;;;;;;4186255;28;20043;-84
2022/10/19 01:18:48;;;;;;;9.95;1.38;;;10.30;72.40;;;;;;4187678;28;20073;-84
2022/10/19 01:21:35;;;;;;;10.80;1.42;;;10.20;72.30;;;;;;4191831;28;20083;-83
2022/10/19 01:24:42;;;;;;;11.77;1.70;;;10.20;72.40;;;;;;4189218;28;20531;-83
2022/10/19 01:27:33;;;;;;;14.05;2.25;;;10.10;72.40;;;;;;4193726;28;20577;-83
2022/10/19 01:30:04;;;;;;;18.70;2.33;;;10.10;72.60;;;;;;4193888;28;20075;-83
2022/10/19 01:33:04;;;;;;;10.90;1.42;;;10.00;72.50;;;;;;4195208;28;20048;-83
2022/10/19 01:35:33;;;;;;;12.02;1.63;;;10.00;72.70;;;;;;4196415;28;20040;-83
2022/10/19 01:37:58;;;;;;;12.75;1.42;;;10.00;72.80;;;;;;4196241;28;20035;-83
2022/10/19 01:40:29;;;;;;;13.48;1.55;;;10.00;72.90;;;;;;4191582;28;20063;-83
2022/10/19 01:43:12;;;;;;;10.32;1.63;;;10.00;73.00;;;;;;4191925;28;20039;-84
2022/10/19 01:45:44;;;;;;;13.38;2.42;;;10.00;73.00;;;;;;4175343;28;20404;-83
2022/10/19 01:48:11;;;;;;;11.52;1.50;;;9.90;73.10;;;;;;4192941;28;20031;-83
2022/10/19 01:50:56;;;;;;;13.15;1.95;;;10.00;73.10;;;;;;4201175;28;20047;-84
2022/10/19 01:53:18;;;;;;;16.02;1.70;;;9.90;73.10;;;;;;4194353;28;20146;-83
2022/10/19 01:55:41;;;;;;;17.85;2.58;;;9.90;73.20;;;;;;4193975;28;20067;-83
2022/10/19 01:58:06;;;;;;;17.38;2.20;;;9.80;73.30;;;;;;4186355;28;20039;-84
2022/10/19 02:00:27;;;;;;;15.63;2.25;;;9.80;73.50;;;;;;4196729;28;20066;-83
2022/10/19 02:02:49;;;;;;;16.80;2.03;;;9.80;73.60;;;;;;4200893;28;20059;-84
2022/10/19 02:05:10;;;;;;;12.70;1.95;;;9.80;73.80;;;;;;4187676;28;20039;-83
2022/10/19 02:07:31;;;;;;;24.58;2.08;;;9.80;73.90;;;;;;4185981;28;20071;-83
2022/10/19 02:09:50;;;;;;;12.30;1.70;;;9.80;74.10;;;;;;4181924;28;20598;-84
2022/10/19 02:12:11;;;;;;;14.13;2.15;;;9.80;74.20;;;;;;4190857;28;20162;-83
2022/10/19 02:14:36;;;;;;;17.45;2.22;;;9.80;74.30;;;;;;4186205;28;20481;-83
2022/10/19 02:17:06;;;;;;;16.60;2.47;;;9.80;74.50;;;;;;4205700;28;20117;-83
2022/10/19 02:19:25;;;;;;;17.63;2.38;;;9.80;74.60;;;;;;4198843;28;20539;-83
2022/10/19 02:21:45;;;;;;;19.98;2.38;;;9.80;74.80;;;;;;4187919;28;20431;-83
2022/10/19 02:24:05;;;;;;;19.38;1.75;;;9.80;74.90;;;;;;4189114;28;20112;-83
2022/10/19 02:26:24;;;;;;;20.20;2.83;;;9.80;75.00;;;;;;4186219;28;20098;-83
2022/10/19 02:28:44;;;;;;;20.38;2.38;;;9.80;75.10;;;;;;4192562;28;20081;-83
2022/10/19 02:31:04;;;;;;;16.17;2.10;;;9.90;75.30;;;;;;4188251;28;20498;-84
2022/10/19 02:33:23;;;;;;;26.67;2.63;;;9.90;75.40;;;;;;4186428;28;20086;-84
2022/10/19 02:35:43;;;;;;;19.98;2.45;;;9.90;75.50;;;;;;4189664;28;20516;-83
2022/10/19 02:38:05;;;;;;;13.38;2.03;;;9.90;75.80;;;;;;4194891;28;20100;-83
2022/10/19 02:40:26;;;;;;;22.63;2.15;;;10.00;75.90;;;;;;4197619;28;20105;-84
2022/10/19 02:42:54;;;;;;;19.10;2.10;;;9.90;75.90;;;;;;4190211;28;20098;-84
2022/10/19 02:45:37;;;;;;;21.15;2.30;;;9.90;76.00;;;;;;4193921;28;20032;-84
2022/10/19 02:48:07;;;;;;;19.50;2.50;;;9.90;76.40;;;;;;4188471;28;20047;-84
2022/10/19 02:50:27;;;;;;;18.50;2.20;;;9.90;76.30;;;;;;4191211;28;20123;-83
2022/10/19 02:52:46;;;;;;;24.13;2.53;;;10.00;76.50;;;;;;4195251;28;20074;-84
2022/10/19 02:55:06;;;;;;;17.83;2.53;;;10.00;76.50;;;;;;4189060;28;20400;-84
2022/10/19 02:57:26;;;;;;;19.40;2.90;;;10.00;76.60;;;;;;4190087;28;20094;-84
2022/10/19 02:59:45;;;;;;;19.30;2.63;;;10.00;76.70;;;;;;4192193;28;20051;-83
2022/10/19 03:02:04;;;;;;;21.52;2.22;;;10.00;76.70;;;;;;4191133;28;20120;-83
2022/10/19 03:04:23;;;;;;;19.77;2.15;;;10.00;76.70;;;;;;4191412;28;20460;-83
2022/10/19 03:06:42;;;;;;;24.15;2.72;;;10.10;76.90;;;;;;4191941;28;20094;-83
2022/10/19 03:09:02;;;;;;;12.57;1.92;;;10.10;76.90;;;;;;4183443;28;20039;-83
2022/10/19 03:11:21;;;;;;;19.77;2.67;;;10.10;76.90;;;;;;4193104;28;20178;-84
2022/10/19 03:13:41;;;;;;;21.02;1.90;;;10.10;77.00;;;;;;4191224;28;20044;-83
2022/10/19 03:16:09;;;;;;;21.65;2.65;;;10.20;77.10;;;;;;4188173;28;20051;-84
2022/10/19 03:18:28;;;;;;;12.73;2.22;;;10.10;77.10;;;;;;4184786;28;20174;-83
2022/10/19 03:20:47;;;;;;;18.67;2.78;;;10.20;77.10;;;;;;4190918;28;20611;-83
2022/10/19 03:23:06;;;;;;;24.35;3.00;;;10.20;77.30;;;;;;4190312;28;20035;-83
2022/10/19 03:25:26;;;;;;;14.23;2.00;;;10.20;77.50;;;;;;4189278;28;20193;-83
2022/10/19 03:27:45;;;;;;;28.40;2.85;;;10.20;77.60;;;;;;4190609;28;20047;-84
2022/10/19 03:30:04;;;;;;;17.92;2.10;;;10.20;77.60;;;;;;4190672;28;20040;-83
2022/10/19 03:32:24;;;;;;;25.67;2.53;;;10.30;77.70;;;;;;4189937;28;20043;-83
2022/10/19 03:34:43;;;;;;;18.20;1.90;;;10.40;77.80;;;;;;4190990;28;20048;-84
2022/10/19 03:37:02;;;;;;;17.73;2.38;;;10.30;77.80;;;;;;4194136;28;20040;-83
2022/10/19 03:39:21;;;;;;;16.73;1.77;;;10.30;77.90;;;;;;4192023;28;20039;-83
2022/10/19 03:41:40;;;;;;;21.88;2.72;;;10.40;77.90;;;;;;4183789;28;20172;-84
2022/10/19 03:44:00;;;;;;;17.73;2.58;;;10.40;78.00;;;;;;4185371;28;20052;-82
2022/10/19 03:46:20;;;;;;;19.85;2.33;;;10.40;78.00;;;;;;4198972;28;20028;-83
2022/10/19 03:48:39;;;;;;;18.50;1.98;;;10.40;78.00;;;;;;4194121;28;20035;-84
2022/10/19 03:51:01;;;;;;;19.35;2.67;;;10.40;78.00;;;;;;4189237;28;20089;-83
2022/10/19 03:53:20;;;;;;;15.32;2.50;;;10.40;78.00;;;;;;4190606;28;20039;-83
2022/10/19 03:55:39;;;;;;;23.25;2.55;;;10.50;78.00;;;;;;4192288;28;20669;-83
2022/10/19 03:57:58;;;;;;;14.88;2.53;;;10.40;77.90;;;;;;4191219;28;20085;-83
2022/10/19 04:00:17;;;;;;;15.38;2.40;;;10.50;78.20;;;;;;4189085;28;20078;-83
2022/10/19 04:02:36;;;;;;;18.90;2.50;;;10.60;78.00;;;;;;4185360;28;20462;-83
2022/10/19 04:04:55;;;;;;;11.43;2.42;;;10.50;78.00;;;;;;4187222;28;20032;-83
2022/10/19 04:07:14;;;;;;;16.90;2.50;;;10.50;78.00;;;;;;4186537;28;20147;-83
2022/10/19 04:09:33;;;;;;;24.52;2.40;;;10.50;78.00;;;;;;4190954;28;20039;-83
2022/10/19 04:11:52;;;;;;;16.75;3.55;;;10.50;78.00;;;;;;4187999;28;20429;-84
2022/10/19 04:14:13;;;;;;;16.75;2.28;;;10.50;78.10;;;;;;4195101;28;20110;-83
2022/10/19 04:16:33;;;;;;;13.85;2.45;;;10.50;78.10;;;;;;4193646;28;20039;-83
2022/10/19 04:18:52;;;;;;;16.55;2.78;;;10.60;78.00;;;;;;4190200;28;20117;-83
2022/10/19 04:21:26;;;;;;;16.20;2.22;;;10.60;78.00;;;;;;4196697;28;20112;-84
2022/10/19 04:23:45;;;;;;;;;;;10.60;77.80;;;;;;4188675;28;20075;-84
2022/10/19 04:26:06;;;;;;;10.73;1.65;;;10.60;77.80;;;;;;4189643;28;19961;-83
2022/10/19 04:28:22;;;;;;;14.38;2.22;;;10.50;77.10;;;;;;4191929;28;20090;-83
2022/10/19 04:30:41;;;;;;;8.05;1.40;;;10.50;76.90;;;;;;4193020;28;20036;-83
2022/10/19 04:33:00;;;;;;;6.65;1.58;;;10.50;76.80;;;;;;4190295;28;20638;-83
2022/10/19 04:35:20;;;;;;;10.35;1.30;;;10.50;76.60;;;;;;4195587;28;20094;-84
2022/10/19 04:37:39;;;;;;;16.25;2.05;;;10.50;76.50;;;;;;4193708;28;20035;-84
2022/10/19 04:39:58;;;;;;;12.75;1.40;;;10.50;76.40;;;;;;4189764;28;20224;-84
2022/10/19 04:42:17;;;;;;;17.42;1.60;;;10.50;76.20;;;;;;4187808;28;20761;-84
2022/10/19 04:44:36;;;;;;;12.13;1.80;;;10.40;76.00;;;;;;4188153;28;20144;-84
2022/10/19 04:46:55;;;;;;;7.45;1.52;;;10.50;75.80;;;;;;4202735;28;20047;-83
2022/10/19 04:49:14;;;;;;;11.85;1.83;;;10.40;75.60;;;;;;4189266;28;20105;-83
2022/10/19 04:51:33;;;;;;;6.65;1.23;;;10.40;75.40;;;;;;4191514;28;20039;-84
2022/10/19 04:53:54;;;;;;;10.60;1.48;;;10.30;75.30;;;;;;4195918;28;20048;-83
2022/10/19 04:56:19;;;;;;;9.23;1.30;;;10.40;75.20;;;;;;4197147;28;20043;-83
2022/10/19 04:58:38;;;;;;;6.72;1.45;;;10.30;74.90;;;;;;4186561;28;20603;-84
2022/10/19 05:00:58;;;;;;;8.20;1.20;;;10.20;74.80;;;;;;4192372;28;20043;-83
2022/10/19 05:03:17;;;;;;;10.77;1.30;;;10.20;74.70;;;;;;4191135;28;20801;-83
2022/10/19 05:05:37;;;;;;;10.98;1.38;;;10.20;74.70;;;;;;4197183;28;20130;-83
2022/10/19 05:07:56;;;;;;;10.57;1.30;;;10.10;74.50;;;;;;4197606;28;20109;-83
2022/10/19 05:10:15;;;;;;;6.05;1.42;;;10.10;74.50;;;;;;4201004;28;20550;-83
2022/10/19 05:12:35;;;;;;;12.07;1.30;;;10.10;74.50;;;;;;4200057;28;20043;-84
2022/10/19 05:14:54;;;;;;;5.57;1.23;;;10.10;74.60;;;;;;4200970;28;20407;-83
2022/10/19 05:17:13;;;;;;;8.75;1.13;;;10.10;74.50;;;;;;4191264;28;20046;-83
2022/10/19 05:19:32;;;;;;;6.32;1.40;;;10.00;74.30;;;;;;4202032;28;20507;-83
2022/10/19 05:21:51;;;;;;;9.80;1.50;;;10.00;74.30;;;;;;4191993;28;20120;-83
2022/10/19 05:24:12;;;;;;;8.30;1.30;;;10.00;74.30;;;;;;4201892;28;20050;-83
2022/10/19 05:26:31;;;;;;;8.30;1.80;;;10.10;74.40;;;;;;4199829;28;20699;-83
2022/10/19 05:28:56;;;;;;;12.60;1.85;;;9.90;74.30;;;;;;4203043;28;20109;-83
2022/10/19 05:31:18;;;;;;;6.45;1.23;;;10.00;74.40;;;;;;4194188;28;20066;-83
2022/10/19 05:33:39;;;;;;;10.30;1.20;;;9.90;74.30;;;;;;4192729;28;20093;-83
2022/10/19 05:35:58;;;;;;;12.32;1.65;;;9.80;74.20;;;;;;4195862;28;20599;-83
2022/10/19 05:38:17;;;;;;;10.52;1.58;;;9.90;74.20;;;;;;4189697;28;20039;-83
2022/10/19 05:40:36;;;;;;;7.03;1.50;;;9.80;74.10;;;;;;4193838;28;20408;-83
2022/10/19 05:42:55;;;;;;;5.22;1.40;;;9.80;74.10;;;;;;4197528;28;20032;-84
2022/10/19 05:45:14;;;;;;;10.60;1.45;;;9.80;74.10;;;;;;4193734;28;20052;-84
2022/10/19 05:47:33;;;;;;;9.48;1.65;;;9.70;74.10;;;;;;4195629;28;20036;-84
2022/10/19 05:49:52;;;;;;;9.75;1.98;;;9.60;74.00;;;;;;4192322;28;20135;-83
2022/10/19 05:52:11;;;;;;;5.63;1.63;;;9.70;74.10;;;;;;4188971;28;20035;-83
2022/10/19 05:54:31;;;;;;;7.05;1.30;;;9.60;73.90;;;;;;4190776;28;20093;-83
2022/10/19 05:56:50;;;;;;;5.20;1.63;;;9.50;73.90;;;;;;4187957;28;20063;-83
2022/10/19 05:59:19;;;;;;;4.60;1.50;;;9.50;73.90;;;;;;4190698;28;20403;-83
2022/10/19 06:01:38;;;;;;;4.60;1.52;;;9.50;74.00;;;;;;4193634;28;20144;-83
2022/10/19 06:03:58;;;;;;;10.63;1.75;;;9.50;74.00;;;;;;4193375;28;20038;-83
2022/10/19 06:06:18;;;;;;;7.32;1.40;;;9.50;74.00;;;;;;4200654;28;20042;-83
2022/10/19 06:08:38;;;;;;;5.63;1.02;;;9.40;74.00;;;;;;4190946;28;20039;-82
2022/10/19 06:11:09;;;;;;;9.32;1.30;;;9.40;74.00;;;;;;4190175;28;20062;-82
2022/10/19 06:13:28;;;;;;;8.63;1.33;;;9.30;74.10;;;;;;4189551;28;20565;-84
2022/10/19 06:15:50;;;;;;;9.80;1.42;;;9.40;74.30;;;;;;4193922;28;20594;-84
2022/10/19 06:18:11;;;;;;;7.40;1.35;;;9.30;74.50;;;;;;4196651;28;20036;-83
2022/10/19 06:20:36;;;;;;;18.17;1.75;;;9.30;74.60;;;;;;4192681;28;20040;-83
2022/10/19 06:22:55;;;;;;;8.00;1.60;;;9.30;74.90;;;;;;4189503;28;20112;-83
2022/10/19 06:25:14;;;;;;;6.65;1.13;;;9.20;75.00;;;;;;4198029;28;20044;-83
2022/10/19 06:27:33;;;;;;;5.35;0.90;;;9.20;75.00;;;;;;4196672;28;20042;-84
2022/10/19 06:29:52;;;;;;;6.35;1.20;;;9.30;75.30;;;;;;4192103;28;20043;-84
2022/10/19 06:32:12;;;;;;;6.35;1.20;;;9.20;75.30;;;;;;4191633;28;20031;-83
2022/10/19 06:34:31;;;;;;;13.65;1.20;;;9.20;75.40;;;;;;4192003;28;20043;-83
2022/10/19 06:36:50;;;;;;;3.28;0.93;;;9.20;75.50;;;;;;4189499;28;20087;-83
2022/10/19 06:39:09;;;;;;;3.03;0.80;;;9.20;75.50;;;;;;4189195;28;20047;-83
2022/10/19 06:41:29;;;;;;;6.45;1.30;;;9.30;75.80;;;;;;4185352;28;20140;-83
2022/10/19 06:43:50;;;;;;;8.13;1.48;;;9.20;75.80;;;;;;4187900;28;20059;-83
2022/10/19 06:46:14;;;;;;;1.08;0.40;;;9.20;75.80;;;;;;4193131;28;20471;-84
2022/10/19 06:48:33;;;;;;;3.20;0.90;;;9.20;76.60;;;;;;4187533;28;20508;-82
2022/10/19 06:50:57;;;;;;;4.03;0.80;;;9.20;75.90;;;;;;4199207;28;20097;-83
2022/10/19 06:53:16;;;;;;;8.13;1.00;;;9.20;76.00;;;;;;4194196;28;20077;-82
2022/10/19 06:55:35;;;;;;;5.00;0.90;;;9.20;76.10;;;;;;4194923;28;20503;-83
2022/10/19 06:57:54;;;;;;;8.20;0.98;;;9.20;76.30;;;;;;4201272;28;20853;-84
2022/10/19 07:00:14;;;;;;;6.93;1.00;;;9.20;76.30;;;;;;4197336;28;20082;-84
2022/10/19 07:02:33;;;;;;;6.30;0.93;;;9.20;76.30;;;;;;4189807;28;20035;-83
2022/10/19 07:04:52;;;;;;;3.28;1.30;;;9.30;76.50;;;;;;4193922;28;20052;-84
2022/10/19 07:07:11;;;;;;;5.93;1.00;;;9.20;76.60;;;;;;4194354;28;20040;-84
2022/10/19 07:09:30;;;;;;;4.47;0.95;;;9.30;76.60;;;;;;4194757;28;20089;-84
2022/10/19 07:11:49;;;;;;;3.63;1.00;;;9.30;76.50;;;;;;4197199;28;20123;-83
2022/10/19 07:14:08;;;;;;;3.47;0.90;;;9.30;76.60;;;;;;4193879;28;20074;-84
2022/10/19 07:16:27;;;;;;;6.90;1.08;;;9.40;76.60;;;;;;4192764;28;20115;-83
2022/10/19 07:18:47;;;;;;;8.93;1.10;;;9.40;76.70;;;;;;4200608;28;20043;-83
2022/10/19 07:21:09;;;;;;;3.13;1.05;;;9.30;76.70;;;;;;4193966;28;20040;-84
2022/10/19 07:23:31;;;;;;;2.88;1.02;;;9.30;76.80;;;;;;4201582;28;20109;-84
2022/10/19 07:25:52;;;;;;;4.65;0.90;;;9.50;77.00;;;;;;4206463;28;20553;-84
2022/10/19 07:28:11;;;;;;;6.20;0.90;;;9.40;76.90;;;;;;4205466;28;20035;-84
2022/10/19 07:30:30;;;;;;;3.10;0.82;;;9.40;77.00;;;;;;4203344;28;20039;-84
2022/10/19 07:32:49;;;;;;;4.55;0.98;;;9.40;77.00;;;;;;4196612;28;20047;-84
2022/10/19 07:35:08;;;;;;;2.70;0.90;;;9.50;77.10;;;;;;4202283;28;20046;-84
2022/10/19 07:37:27;;;;;;;3.42;0.90;;;9.50;77.00;;;;;;4205605;28;20043;-83
2022/10/19 07:39:46;;;;;;;6.18;1.15;;;9.50;77.00;;;;;;4197891;28;20035;-83
2022/10/19 07:42:05;;;;;;;6.65;0.88;;;9.60;77.00;;;;;;4204388;28;20424;-83
2022/10/19 07:44:24;;;;;;;9.65;1.00;;;9.60;77.00;;;;;;4202064;28;20026;-83
2022/10/19 07:46:44;;;;;;;4.15;1.02;;;9.60;76.80;;;;;;4200234;28;20530;-83
2022/10/19 07:49:11;;;;;;;6.63;1.00;;;9.60;76.80;;;;;;4199421;28;20415;-84
2022/10/19 07:51:30;;;;;;;6.32;1.05;;;9.80;76.90;;;;;;4201565;28;20143;-84
2022/10/19 07:53:49;;;;;;;4.57;1.05;;;9.70;76.70;;;;;;4193632;28;20117;-84
2022/10/19 07:56:15;;;;;;;6.45;1.17;;;9.70;76.80;;;;;;4200427;28;20051;-83
2022/10/19 07:58:35;;;;;;;5.70;0.90;;;9.80;76.80;;;;;;4206443;28;20047;-83
2022/10/19 08:00:59;;;;;;;4.88;0.60;;;9.80;76.80;;;;;;4205434;28;20066;-83
2022/10/19 08:03:18;;;;;;;7.38;0.90;;;9.80;76.70;;;;;;4197623;28;20551;-84
2022/10/19 08:05:38;;;;;;;4.57;0.68;;;9.90;76.50;;;;;;4199010;28;20093;-83
2022/10/19 08:07:57;;;;;;;8.27;0.60;;;9.90;76.40;;;;;;4205119;28;20076;-83
2022/10/19 08:10:16;;;;;;;3.10;0.50;;;9.90;76.30;;;;;;4199628;28;20090;-84
2022/10/19 08:12:36;;;;;;;4.43;0.50;;;9.90;76.20;;;;;;4195767;28;20039;-84
2022/10/19 08:14:56;;;;;;;3.97;0.75;;;10.00;76.20;;;;;;4195437;28;20043;-84
2022/10/19 08:17:16;;;;;;;6.15;0.80;;;10.00;76.20;;;;;;4194875;28;20121;-84
2022/10/19 08:19:40;;;;;;;8.10;0.80;;;10.20;76.20;;;;;;4192637;28;20503;-85
2022/10/19 08:21:59;;;;;;;4.57;0.63;;;10.10;76.90;;;;;;4189836;28;20065;-84
2022/10/19 08:24:19;;;;;;;5.28;0.60;;;10.10;75.90;;;;;;4192007;28;20070;-85
2022/10/19 08:26:39;;;;;;;3.70;0.40;;;10.10;75.80;;;;;;4192637;28;20056;-83
2022/10/19 08:29:06;;;;;;;6.65;0.50;;;10.30;75.80;;;;;;4200867;28;20117;-84
2022/10/19 08:31:26;;;;;;;1.77;0.50;;;10.20;75.40;;;;;;4194260;28;20098;-84
2022/10/19 08:33:47;;;;;;;3.53;0.60;;;10.20;75.10;;;;;;4193829;28;20044;-84
2022/10/19 08:36:08;;;;;;;3.10;0.70;;;10.20;74.70;;;;;;4194738;28;20174;-84
2022/10/19 08:38:27;;;;;;;2.90;0.80;;;10.20;74.50;;;;;;4192169;28;20110;-84
2022/10/19 08:40:47;;;;;;;6.20;0.50;;;10.30;74.40;;;;;;4194105;28;20035;-85
2022/10/19 08:43:36;;;;;;;2.42;0.50;;;10.30;74.40;;;;;;4192886;28;20044;-84
2022/10/19 08:46:20;;;;;;;4.70;0.63;;;10.30;74.00;;;;;;4194419;28;20648;-84
2022/10/19 08:48:41;;;;;;;2.28;0.47;;;10.30;74.00;;;;;;4194162;28;20840;-84
2022/10/19 08:51:02;;;;;;;5.13;0.60;;;10.30;74.10;;;;;;4189530;28;20501;-85
2022/10/19 08:53:32;;;;;;;4.43;0.63;;;10.50;74.10;;;;;;4194123;28;20035;-84
2022/10/19 08:55:57;;;;;;;4.25;0.38;;;10.40;73.60;;;;;;4198536;28;20047;-85
2022/10/19 08:58:46;;;;;;;4.80;0.90;;;10.50;73.50;;;;;;4193704;28;20506;-84
2022/10/19 09:01:10;;;;;;;7.03;0.73;;;10.50;73.10;;;;;;4194533;28;20062;-83
2022/10/19 09:03:57;;;;;;;4.75;0.45;;;10.50;72.50;;;;;;4200228;28;20086;-85
2022/10/19 09:06:35;;;;;;;2.88;0.60;;;10.50;73.40;;;;;;4197203;28;20462;-84
2022/10/19 09:08:56;;;;;;;2.45;0.60;;;10.60;72.30;;;;;;4194933;28;20046;-85
2022/10/19 09:11:24;;;;;;;2.58;0.65;;;10.60;72.50;;;;;;4189358;28;20036;-85
2022/10/19 09:13:46;;;;;;;7.15;0.70;;;10.60;72.40;;;;;;4188027;28;20035;-84
2022/10/19 09:16:05;;;;;;;4.25;0.70;;;10.70;72.30;;;;;;4193749;28;20071;-83
2022/10/19 09:18:31;;;;;;;4.63;0.57;;;10.70;72.30;;;;;;4190441;28;20039;-84
2022/10/19 09:20:59;;;;;;;3.58;0.65;;;10.70;72.40;;;;;;4197110;28;20044;-84
2022/10/19 09:23:35;;;;;;;2.03;0.50;;;10.70;72.60;;;;;;4202086;28;20127;-85
2022/10/19 09:25:56;;;;;;;4.03;0.60;;;10.70;72.40;;;;;;4197704;28;20048;-84
2022/10/19 09:28:37;;;;;;;2.45;0.55;;;10.80;72.30;;;;;;4193770;28;20040;-85
2022/10/19 09:30:57;;;;;;;2.30;0.52;;;10.80;71.90;;;;;;4195944;28;20035;-84
2022/10/19 09:33:30;;;;;;;2.80;0.60;;;10.80;71.80;;;;;;4192854;28;20567;-85
2022/10/19 09:35:51;;;;;;;4.18;0.70;;;11.00;71.90;;;;;;4191303;28;20093;-84
2022/10/19 09:38:15;;;;;;;5.32;0.63;;;10.90;71.90;;;;;;4193048;28;20099;-85
2022/10/19 09:40:34;;;;;;;3.85;0.70;;;11.00;72.00;;;;;;4198887;28;20081;-84
2022/10/19 09:42:57;;;;;;;2.10;0.50;;;11.00;71.50;;;;;;4190133;28;20048;-85
2022/10/19 09:45:34;;;;;;;6.13;0.80;;;11.10;70.30;;;;;;4190427;28;20551;-85
2022/10/19 09:47:53;;;;;;;2.92;0.30;;;11.10;70.20;;;;;;4191560;28;20071;-85
2022/10/19 09:50:19;;;;;;;6.32;0.60;;;11.30;70.20;;;;;;4207247;28;20269;-85
2022/10/19 09:52:41;;;;;;;3.20;0.65;;;11.20;68.90;;;;;;4206656;28;20055;-85
2022/10/19 09:55:14;;;;;;;5.00;0.50;;;11.20;69.00;;;;;;4201501;28;20051;-85
2022/10/19 09:57:41;;;;;;;2.70;0.40;;;11.20;68.80;;;;;;4192880;28;20032;-84
2022/10/19 10:00:01;;;;;;;5.10;0.60;;;11.30;68.30;;;;;;4203481;28;20039;-85
2022/10/19 10:02:27;;;;;;;1.58;0.40;;;11.30;68.00;;;;;;4193558;28;20085;-84
2022/10/19 10:04:55;;;;;;;2.03;0.25;;;11.50;68.50;;;;;;4195752;28;20075;-85
2022/10/19 10:07:17;;;;;;;1.52;0.25;;;11.40;68.70;;;;;;4200029;28;20039;-84
2022/10/19 10:09:39;;;;;;;1.83;0.55;;;11.50;68.30;;;;;;4199670;28;20064;-85
2022/10/19 10:11:59;;;;;;;3.22;0.43;;;11.60;67.50;;;;;;4197577;28;20082;-85
2022/10/19 10:14:20;;;;;;;1.75;0.30;;;11.50;67.90;;;;;;4197744;28;20130;-85
2022/10/19 10:16:39;;;;;;;4.30;0.40;;;11.70;67.60;;;;;;4196995;28;20043;-85
2022/10/19 10:19:04;;;;;;;3.85;0.40;;;11.70;66.40;;;;;;4199735;28;20039;-85
2022/10/19 10:21:27;;;;;;;0.95;0.30;;;11.60;64.70;;;;;;4203239;28;20078;-85
2022/10/19 10:24:10;;;;;;;3.07;0.40;;;11.60;64.40;;;;;;4196026;28;20039;-85
2022/10/19 10:26:29;;;;;;;1.52;0.40;;;11.70;64.20;;;;;;4198248;28;20082;-85
2022/10/19 10:28:50;;;;;;;1.25;0.30;;;11.70;63.90;;;;;;4195123;28;20047;-84
2022/10/19 10:31:09;;;;;;;1.85;0.50;;;11.70;64.20;;;;;;4193861;28;20458;-83
2022/10/19 10:33:31;;;;;;;2.20;0.40;;;11.70;64.70;;;;;;4195480;28;20035;-84
2022/10/19 10:35:54;;;;;;;3.28;0.52;;;11.70;63.20;;;;;;4200429;28;20032;-84
2022/10/19 10:38:20;;;;;;;3.50;0.43;;;11.70;62.80;;;;;;4198171;28;20389;-85
2022/10/19 10:40:40;;;;;;;3.58;0.40;;;11.80;62.60;;;;;;4204178;28;20531;-84
2022/10/19 10:43:15;;;;;;;5.35;0.40;;;11.70;61.90;;;;;;4193334;28;20099;-83
2022/10/19 10:45:41;;;;;;;1.25;0.20;;;11.70;62.30;;;;;;4200615;28;20043;-84
2022/10/19 10:48:30;;;;;;;0.60;0.22;;;11.70;62.80;;;;;;4198176;28;20032;-84
2022/10/19 10:50:50;;;;;;;4.68;0.38;;;11.80;62.10;;;;;;4191877;28;20040;-85
2022/10/19 10:53:42;;;;;;;0.70;0.30;;;11.80;62.10;;;;;;4194591;28;20447;-84
2022/10/19 10:56:03;;;;;;;0.65;0.20;;;11.90;60.70;;;;;;4198398;28;20028;-84
2022/10/19 10:58:46;;;;;;;3.85;0.52;;;11.90;60.50;;;;;;4196254;28;20032;-84
2022/10/19 11:01:17;;;;;;;2.97;0.20;;;11.90;60.00;;;;;;4199616;28;20035;-84
2022/10/19 11:03:50;;;;;;;0.95;0.40;;;11.90;58.10;;;;;;4199694;28;20062;-84
2022/10/19 11:06:10;;;;;;;2.08;0.30;;;12.00;58.00;;;;;;4196108;28;20075;-85
2022/10/19 11:08:45;;;;;;;1.13;0.28;;;11.90;57.00;;;;;;4201726;28;20028;-84
2022/10/19 11:11:25;;;;;;;1.50;0.25;;;12.00;57.40;;;;;;4194831;28;20557;-84
2022/10/19 11:14:30;;;;;;;4.43;0.30;;;12.00;57.70;;;;;;4195482;28;20031;-84
2022/10/19 11:16:51;;;;;;;5.75;0.40;;;12.00;56.70;;;;;;4190194;28;20097;-84
2022/10/19 11:19:17;;;;;;;1.95;0.40;;;12.00;58.00;;;;;;4193168;28;20028;-84
2022/10/19 11:21:50;;;;;;;1.75;0.20;;;12.00;56.80;;;;;;4193720;28;20067;-83
2022/10/19 11:24:47;;;;;;;1.02;0.20;;;12.00;57.10;;;;;;4189655;28;20083;-84
2022/10/19 11:27:16;;;;;;;3.58;0.30;;;12.10;57.50;;;;;;4196356;28;20039;-83
2022/10/19 11:29:47;;;;;;;1.52;0.47;;;12.30;58.60;;;;;;4195586;28;20718;-84
2022/10/19 11:32:29;;;;;;;6.93;0.50;;;12.20;58.60;;;;;;4195956;28;20106;-84
2022/10/19 11:35:05;;;;;;;2.03;0.40;;;12.20;58.70;;;;;;4197454;28;20102;-84
2022/10/19 11:37:49;;;;;;;1.23;0.20;;;12.30;58.20;;;;;;4193514;28;20047;-84
2022/10/19 11:40:26;;;;;;;;;;;12.30;58.70;;;;;;4191785;28;20381;-84
2022/10/19 11:42:55;;;;;;;1.75;0.45;;;12.20;58.60;;;;;;4182143;28;20328;-84
2022/10/19 11:45:30;;;;;;;3.60;0.25;;;12.20;58.70;;;;;;4191277;28;20051;-84
2022/10/19 11:48:08;;;;;;;6.07;0.60;;;12.30;59.80;;;;;;4188674;28;20058;-84
2022/10/19 11:50:47;;;;;;;0.80;0.40;;;12.20;58.30;;;;;;4187116;28;20173;-84
2022/10/19 11:53:38;;;;;;;1.13;0.30;;;12.20;58.60;;;;;;4190687;28;20034;-84
2022/10/19 11:56:06;;;;;;;0.85;0.30;;;12.30;59.00;;;;;;4190357;28;20435;-83
2022/10/19 11:58:48;;;;;;;2.75;0.30;;;12.20;59.60;;;;;;4194855;28;20023;-84
2022/10/19 12:01:49;;;;;;;1.88;0.43;;;12.20;59.70;;;;;;4187820;28;20050;-84
2022/10/19 12:04:21;;;;;;;2.67;0.50;;;12.20;60.90;;;;;;4180330;28;20078;-84
2022/10/19 12:06:46;;;;;;;0.95;0.40;;;12.20;60.30;;;;;;4187854;28;20118;-84
2022/10/19 12:09:27;;;;;;;2.00;0.63;;;12.20;60.80;;;;;;4185866;28;20088;-84
2022/10/19 12:12:04;;;;;;;3.67;1.15;;;12.20;61.20;;;;;;4192566;28;20443;-84
2022/10/19 12:14:29;;;;;;;1.42;0.50;;;12.20;61.30;;;;;;4200671;28;20043;-84
2022/10/19 12:16:53;;;;;;;2.35;0.50;;;12.20;61.00;;;;;;4189462;28;20403;-84
2022/10/19 12:19:23;;;;;;;1.63;0.30;;;12.30;61.40;;;;;;4197195;28;20035;-83
2022/10/19 12:21:44;;;;;;;0.65;0.30;;;12.30;61.50;;;;;;4198090;28;20116;-84
2022/10/19 12:24:11;;;;;;;1.15;0.50;;;12.30;61.10;;;;;;4193558;28;20055;-83
2022/10/19 12:26:35;;;;;;;3.20;0.35;;;12.30;61.30;;;;;;4194182;28;20086;-84
2022/10/19 12:29:01;;;;;;;1.75;0.47;;;12.30;61.10;;;;;;4196119;28;20094;-84